Time;durP1;ratioP1;P1;durP2;ratioP2;P2;SDS_P1;SDS_P2;PMS_P1;PMS_P2;Temp;Humidity;BMP_temperature;BMP_pressure;BME280_temperature;BME280_humidity;BME280_pressure;Samples;Min_cycle;Max_cycle;Signal;HPM_P1;HPM_P2
2023/07/23 00:00:33;;;;;;;3.22;2.60;;;15.20;99.90;;;;;;5089676;28;20028;-35
2023/07/23 00:02:58;;;;;;;4.07;2.83;;;15.10;99.90;;;;;;5083457;28;20037;-35
2023/07/23 00:05:24;;;;;;;5.97;3.30;;;15.00;99.90;;;;;;5080517;28;20127;-33
2023/07/23 00:07:57;;;;;;;3.90;3.10;;;15.00;99.90;;;;;;5079375;28;20497;-32
2023/07/23 00:10:24;;;;;;;5.40;3.20;;;15.00;99.90;;;;;;5085045;28;20028;-32
2023/07/23 00:12:49;;;;;;;5.00;3.22;;;15.10;99.90;;;;;;5083421;28;20040;-31
2023/07/23 00:15:15;;;;;;;5.70;3.08;;;15.10;99.90;;;;;;5081529;28;20033;-35
2023/07/23 00:17:41;;;;;;;3.63;2.97;;;15.00;99.90;;;;;;5100276;27;20129;-34
2023/07/23 00:20:08;;;;;;;3.38;2.90;;;15.00;99.90;;;;;;5081144;28;20093;-33
2023/07/23 00:22:34;;;;;;;3.88;3.08;;;15.00;99.90;;;;;;5081007;28;20029;-34
2023/07/23 00:25:00;;;;;;;4.93;2.90;;;15.00;99.90;;;;;;5075534;28;20027;-35
2023/07/23 00:27:25;;;;;;;3.92;2.92;;;15.00;99.90;;;;;;5084301;28;20020;-35
2023/07/23 00:29:51;;;;;;;4.38;2.90;;;15.00;99.90;;;;;;5080920;28;20034;-34
2023/07/23 00:32:17;;;;;;;3.80;2.72;;;15.00;99.90;;;;;;5078542;28;20048;-33
2023/07/23 00:34:42;;;;;;;3.60;2.40;;;15.00;99.90;;;;;;5084342;28;20029;-34
2023/07/23 00:37:08;;;;;;;3.10;2.80;;;14.90;99.90;;;;;;5083481;28;20038;-34
2023/07/23 00:39:34;;;;;;;3.95;2.80;;;14.80;99.90;;;;;;5084081;28;20032;-34
2023/07/23 00:42:00;;;;;;;4.47;2.72;;;14.80;99.90;;;;;;5077082;28;20127;-34
2023/07/23 00:44:26;;;;;;;4.22;2.72;;;14.70;99.90;;;;;;5084462;28;20032;-33
2023/07/23 00:46:52;;;;;;;3.92;2.88;;;14.70;99.90;;;;;;5081103;28;20028;-36
2023/07/23 00:49:18;;;;;;;5.53;3.33;;;14.50;99.90;;;;;;5085327;28;20374;-34
2023/07/23 00:51:44;;;;;;;3.58;2.75;;;14.50;99.90;;;;;;5082199;28;20157;-34
2023/07/23 00:54:12;;;;;;;4.03;2.60;;;14.30;99.90;;;;;;5081100;28;20048;-34
2023/07/23 00:56:39;;;;;;;4.22;2.90;;;14.20;99.90;;;;;;5080916;28;20111;-36
2023/07/23 00:59:06;;;;;;;5.05;2.60;;;14.10;99.90;;;;;;5082587;28;20032;-33
2023/07/23 01:01:32;;;;;;;3.25;2.67;;;14.10;99.90;;;;;;5083621;28;20433;-41
2023/07/23 01:03:57;;;;;;;3.63;2.78;;;14.20;99.90;;;;;;5084695;28;20024;-41
2023/07/23 01:06:26;;;;;;;4.85;2.88;;;14.30;99.90;;;;;;5080534;28;20443;-42
2023/07/23 01:08:55;;;;;;;4.22;2.70;;;14.30;99.90;;;;;;5083659;28;20081;-41
2023/07/23 01:11:22;;;;;;;2.92;2.35;;;14.40;99.90;;;;;;5084027;28;20033;-42
2023/07/23 01:13:51;;;;;;;3.35;2.35;;;14.40;99.90;;;;;;5081619;28;20363;-42
2023/07/23 01:16:17;;;;;;;;;;;14.30;99.90;;;;;;5078315;28;20035;-42
2023/07/23 01:18:43;;;;;;;3.35;2.40;;;14.20;99.90;;;;;;5076578;28;20003;-41
2023/07/23 01:21:14;;;;;;;3.72;2.70;;;14.10;99.90;;;;;;5077227;28;20043;-41
2023/07/23 01:23:40;;;;;;;4.10;2.67;;;14.20;99.90;;;;;;5077026;28;20032;-37
2023/07/23 01:26:09;;;;;;;4.68;2.60;;;14.20;99.90;;;;;;5096502;28;20408;-41
2023/07/23 01:28:35;;;;;;;4.25;2.90;;;14.30;99.90;;;;;;5082596;28;20040;-41
2023/07/23 01:31:00;;;;;;;4.07;2.80;;;14.20;99.90;;;;;;5080538;28;20081;-41
2023/07/23 01:33:26;;;;;;;3.55;2.50;;;14.20;99.90;;;;;;5081403;28;20028;-42
2023/07/23 01:35:55;;;;;;;4.03;2.65;;;14.20;99.90;;;;;;5081282;28;20500;-35
2023/07/23 01:38:21;;;;;;;3.28;2.67;;;14.10;99.90;;;;;;5081524;28;20032;-42
2023/07/23 01:40:47;;;;;;;4.97;2.83;;;14.00;99.90;;;;;;5082023;28;20149;-41
2023/07/23 01:43:13;;;;;;;3.63;2.58;;;14.00;99.90;;;;;;5079113;28;20122;-42
2023/07/23 01:45:43;;;;;;;3.40;2.63;;;13.70;99.90;;;;;;5077941;28;22484;-39
2023/07/23 01:48:09;;;;;;;4.85;2.95;;;13.70;99.90;;;;;;5082531;28;20043;-41
2023/07/23 01:50:34;;;;;;;3.50;2.80;;;13.70;99.90;;;;;;5080925;28;20028;-40
2023/07/23 01:53:00;;;;;;;4.28;3.00;;;13.60;99.90;;;;;;5077986;28;20099;-43
2023/07/23 01:55:25;;;;;;;4.32;3.42;;;13.50;99.90;;;;;;5081890;28;20119;-42
2023/07/23 01:57:51;;;;;;;4.45;3.05;;;13.50;99.90;;;;;;5076927;28;20083;-41
2023/07/23 02:00:19;;;;;;;3.45;2.92;;;13.50;99.90;;;;;;5082101;28;20040;-42
2023/07/23 02:02:44;;;;;;;3.78;2.95;;;13.40;99.90;;;;;;5077583;28;20040;-39
2023/07/23 02:05:10;;;;;;;4.15;2.92;;;13.50;99.90;;;;;;5082759;28;20053;-35
2023/07/23 02:07:35;;;;;;;5.75;3.28;;;13.50;99.90;;;;;;5083040;28;20021;-41
2023/07/23 02:10:01;;;;;;;3.60;2.92;;;13.50;99.90;;;;;;5086435;28;20021;-41
2023/07/23 02:12:27;;;;;;;4.35;3.05;;;13.50;99.90;;;;;;5080659;28;20089;-39
2023/07/23 02:14:53;;;;;;;4.45;3.15;;;13.60;99.90;;;;;;5085717;28;20039;-39
2023/07/23 02:17:19;;;;;;;3.90;2.95;;;13.60;99.90;;;;;;5083979;28;20075;-41
2023/07/23 02:19:44;;;;;;;4.30;2.95;;;13.50;99.90;;;;;;5084707;28;20101;-37
2023/07/23 02:22:10;;;;;;;2.97;2.65;;;13.60;99.90;;;;;;5082952;28;20111;-41
2023/07/23 02:24:36;;;;;;;5.22;3.20;;;13.60;99.90;;;;;;5082986;28;20027;-39
2023/07/23 02:27:02;;;;;;;3.33;2.85;;;13.70;99.90;;;;;;5080932;28;20020;-39
2023/07/23 02:29:28;;;;;;;4.78;3.10;;;13.70;99.90;;;;;;5084669;28;20046;-40
2023/07/23 02:31:53;;;;;;;4.85;3.40;;;13.70;99.90;;;;;;5084566;28;20020;-40
2023/07/23 02:34:19;;;;;;;4.80;3.30;;;13.70;99.90;;;;;;5081163;28;20033;-40
2023/07/23 02:36:48;;;;;;;4.25;2.90;;;13.60;99.90;;;;;;5086192;28;20029;-39
2023/07/23 02:39:13;;;;;;;3.92;3.10;;;13.50;99.90;;;;;;5090042;28;20028;-41
2023/07/23 02:41:39;;;;;;;5.43;3.15;;;13.40;99.90;;;;;;5082926;28;20030;-40
2023/07/23 02:44:05;;;;;;;3.40;2.55;;;13.40;99.90;;;;;;5081838;28;20031;-41
2023/07/23 02:46:31;;;;;;;4.95;2.70;;;13.40;99.90;;;;;;5080969;28;20032;-40
2023/07/23 02:48:56;;;;;;;5.50;3.08;;;13.30;99.90;;;;;;5083533;28;20032;-38
2023/07/23 02:51:22;;;;;;;3.28;2.97;;;13.40;99.90;;;;;;5079034;28;20488;-41
2023/07/23 02:53:49;;;;;;;2.95;2.47;;;13.30;99.90;;;;;;5083672;28;20044;-41
2023/07/23 02:56:14;;;;;;;3.90;2.55;;;13.30;99.90;;;;;;5083199;28;20036;-42
2023/07/23 02:58:40;;;;;;;3.25;2.85;;;13.30;99.90;;;;;;5086589;28;20028;-42
2023/07/23 03:01:06;;;;;;;5.20;2.97;;;13.20;99.90;;;;;;5081570;28;20487;-41
2023/07/23 03:03:31;;;;;;;4.78;3.40;;;13.20;99.90;;;;;;5085279;28;20024;-42
2023/07/23 03:05:57;;;;;;;3.78;2.92;;;13.30;99.90;;;;;;5080637;28;20035;-39
2023/07/23 03:08:23;;;;;;;4.53;3.05;;;13.30;99.90;;;;;;5090586;28;20036;-41
2023/07/23 03:10:48;;;;;;;3.90;3.17;;;13.20;99.90;;;;;;5080312;28;20023;-42
2023/07/23 03:13:14;;;;;;;4.50;3.20;;;13.20;99.90;;;;;;5080894;28;20036;-42
2023/07/23 03:15:39;;;;;;;4.85;3.30;;;13.20;99.90;;;;;;5082172;28;20102;-42
2023/07/23 03:18:05;;;;;;;6.07;3.38;;;13.20;99.90;;;;;;5087792;28;20025;-42
2023/07/23 03:20:31;;;;;;;3.72;2.72;;;13.20;99.90;;;;;;5085107;28;20047;-41
2023/07/23 03:22:56;;;;;;;5.72;2.95;;;13.30;99.90;;;;;;5083831;28;20035;-41
2023/07/23 03:25:22;;;;;;;3.42;2.65;;;13.20;99.90;;;;;;5077747;28;20107;-41
2023/07/23 03:27:47;;;;;;;4.63;2.95;;;13.20;99.90;;;;;;5082405;28;20024;-42
2023/07/23 03:30:13;;;;;;;3.72;3.03;;;13.20;99.90;;;;;;5079956;28;20061;-38
2023/07/23 03:32:39;;;;;;;4.47;3.15;;;13.20;99.90;;;;;;5081851;28;20424;-41
2023/07/23 03:35:06;;;;;;;3.97;2.80;;;13.20;99.90;;;;;;5087892;28;20027;-41
2023/07/23 03:37:31;;;;;;;3.78;3.05;;;13.30;99.90;;;;;;5083396;28;20040;-41
2023/07/23 03:39:57;;;;;;;4.10;2.83;;;13.20;99.90;;;;;;5084076;28;20032;-41
2023/07/23 03:42:26;;;;;;;3.30;2.30;;;13.30;99.90;;;;;;5095979;27;20055;-41
2023/07/23 03:44:51;;;;;;;4.88;3.50;;;13.20;99.90;;;;;;5080817;28;20016;-40
2023/07/23 03:47:19;;;;;;;4.10;3.17;;;13.30;99.90;;;;;;5081642;28;20032;-39
2023/07/23 03:49:45;;;;;;;2.90;2.55;;;13.30;99.90;;;;;;5081358;28;20558;-40
2023/07/23 03:52:11;;;;;;;4.82;3.42;;;13.20;99.90;;;;;;5082733;28;20030;-38
2023/07/23 03:54:37;;;;;;;3.85;3.22;;;13.20;99.90;;;;;;5080476;28;20048;-38
2023/07/23 03:57:04;;;;;;;7.57;3.22;;;13.20;99.90;;;;;;5085102;28;20027;-41
2023/07/23 03:59:34;;;;;;;5.00;3.30;;;13.20;99.90;;;;;;5081562;28;20036;-41
2023/07/23 04:01:59;;;;;;;4.13;3.00;;;13.20;99.90;;;;;;5081557;28;20093;-40
2023/07/23 04:04:25;;;;;;;4.80;4.10;;;13.30;99.90;;;;;;5082752;28;20028;-41
2023/07/23 04:06:51;;;;;;;4.57;3.40;;;13.30;99.90;;;;;;5081638;28;20082;-41
2023/07/23 04:09:17;;;;;;;6.53;3.33;;;13.30;99.90;;;;;;5082744;28;20027;-41
2023/07/23 04:11:42;;;;;;;7.00;3.25;;;13.30;99.90;;;;;;5082738;28;20385;-41
2023/07/23 04:14:08;;;;;;;5.32;3.47;;;13.30;99.90;;;;;;5081344;28;20028;-40
2023/07/23 04:16:33;;;;;;;5.18;3.10;;;13.30;99.90;;;;;;5083397;28;20145;-40
2023/07/23 04:18:59;;;;;;;4.25;3.60;;;13.30;99.90;;;;;;5082645;28;20031;-41
2023/07/23 04:21:25;;;;;;;4.50;3.47;;;13.40;99.90;;;;;;5082634;28;20494;-41
2023/07/23 04:23:55;;;;;;;4.18;3.10;;;13.40;99.90;;;;;;5080697;28;21854;-38
2023/07/23 04:26:21;;;;;;;3.75;2.90;;;13.50;99.90;;;;;;5079148;28;20028;-37
2023/07/23 04:28:48;;;;;;;4.25;3.15;;;13.50;99.90;;;;;;5081274;28;20067;-41
2023/07/23 04:31:14;;;;;;;4.45;3.35;;;13.50;99.90;;;;;;5074700;28;20094;-38
2023/07/23 04:33:39;;;;;;;4.13;3.03;;;13.50;99.90;;;;;;5056449;28;20071;-40
2023/07/23 04:36:07;;;;;;;3.92;2.67;;;13.60;99.90;;;;;;5059388;28;20028;-41
2023/07/23 04:38:33;;;;;;;4.45;2.95;;;13.70;99.90;;;;;;5058014;28;20036;-41
2023/07/23 04:40:59;;;;;;;3.15;2.85;;;13.70;99.90;;;;;;5061921;28;20048;-35
2023/07/23 04:43:24;;;;;;;3.45;2.55;;;13.80;99.90;;;;;;5057686;28;20422;-38
2023/07/23 04:45:50;;;;;;;2.65;2.45;;;13.80;99.90;;;;;;5057285;28;20107;-39
2023/07/23 04:48:16;;;;;;;3.00;2.58;;;13.90;99.90;;;;;;5059248;28;20128;-41
2023/07/23 04:50:42;;;;;;;3.67;2.80;;;13.90;99.90;;;;;;5062049;28;20474;-39
2023/07/23 04:53:08;;;;;;;3.80;2.97;;;13.90;99.90;;;;;;5062727;28;20029;-41
2023/07/23 04:55:34;;;;;;;3.95;2.50;;;14.00;99.90;;;;;;5061871;28;20048;-41
2023/07/23 04:58:00;;;;;;;3.85;2.35;;;14.00;99.90;;;;;;5059168;28;20032;-36
2023/07/23 05:00:26;;;;;;;2.97;2.33;;;14.10;99.90;;;;;;5055911;28;20029;-41
2023/07/23 05:02:51;;;;;;;3.03;2.40;;;14.20;99.90;;;;;;5076748;28;20040;-41
2023/07/23 05:05:17;;;;;;;2.92;2.25;;;14.20;99.90;;;;;;5081790;28;20087;-41
2023/07/23 05:07:42;;;;;;;2.63;2.30;;;14.30;99.90;;;;;;5081250;28;20039;-41
2023/07/23 05:10:08;;;;;;;3.08;2.42;;;14.40;99.90;;;;;;5082549;28;20468;-41
2023/07/23 05:12:34;;;;;;;2.85;2.25;;;14.50;99.90;;;;;;5085183;28;20190;-41
2023/07/23 05:15:14;;;;;;;2.20;2.00;;;14.60;99.90;;;;;;5081572;28;20493;-41
2023/07/23 05:17:40;;;;;;;3.33;2.53;;;14.80;99.90;;;;;;5082993;28;20039;-41
2023/07/23 05:20:07;;;;;;;4.82;2.53;;;14.90;99.90;;;;;;5080503;28;20043;-41
2023/07/23 05:22:36;;;;;;;3.42;2.58;;;15.00;99.90;;;;;;5081556;28;20626;-39
2023/07/23 05:25:03;;;;;;;3.47;2.75;;;15.20;99.90;;;;;;5081771;28;20017;-41
2023/07/23 05:27:29;;;;;;;3.40;2.40;;;15.40;99.90;;;;;;5078434;28;20497;-41
2023/07/23 05:29:54;;;;;;;3.58;2.40;;;15.50;99.90;;;;;;5082671;28;20490;-39
2023/07/23 05:32:20;;;;;;;3.17;2.80;;;15.60;99.90;;;;;;5079696;28;20024;-41
2023/07/23 05:34:46;;;;;;;2.95;2.65;;;15.70;99.90;;;;;;5079488;28;20604;-41
2023/07/23 05:37:11;;;;;;;3.25;2.63;;;15.70;99.90;;;;;;5081552;28;20048;-39
2023/07/23 05:39:37;;;;;;;3.30;2.50;;;15.80;99.90;;;;;;5078800;28;20103;-40
2023/07/23 05:42:03;;;;;;;3.65;2.53;;;16.00;99.90;;;;;;5084333;28;20039;-39
2023/07/23 05:44:28;;;;;;;5.05;3.30;;;16.10;99.90;;;;;;5080697;28;20028;-41
2023/07/23 05:46:54;;;;;;;4.85;2.80;;;16.30;99.90;;;;;;5086433;28;20217;-41
2023/07/23 05:49:20;;;;;;;3.45;2.90;;;16.60;99.90;;;;;;5086408;28;20398;-40
2023/07/23 05:51:45;;;;;;;3.17;2.42;;;16.70;99.90;;;;;;5083434;28;20032;-41
2023/07/23 05:54:11;;;;;;;3.17;2.65;;;16.80;99.90;;;;;;5085196;28;20051;-41
2023/07/23 05:56:37;;;;;;;3.72;2.47;;;17.00;99.90;;;;;;5081102;28;20040;-40
2023/07/23 05:59:03;;;;;;;3.25;2.58;;;17.20;99.90;;;;;;5082940;28;20024;-41
2023/07/23 06:01:28;;;;;;;3.03;2.47;;;17.30;99.90;;;;;;5078590;28;20085;-39
2023/07/23 06:03:54;;;;;;;2.67;2.28;;;17.50;99.90;;;;;;5085006;28;20040;-42
2023/07/23 06:06:19;;;;;;;4.07;3.05;;;17.60;99.90;;;;;;5080040;28;20024;-39
2023/07/23 06:08:45;;;;;;;4.00;2.67;;;17.80;99.90;;;;;;5087495;28;20028;-41
2023/07/23 06:11:11;;;;;;;5.05;2.80;;;18.00;99.90;;;;;;5083924;28;20032;-41
2023/07/23 06:13:36;;;;;;;2.72;2.33;;;18.20;99.90;;;;;;5083885;28;20085;-40
2023/07/23 06:16:02;;;;;;;3.10;2.35;;;18.30;99.90;;;;;;5082111;28;20412;-40
2023/07/23 06:18:28;;;;;;;3.90;2.70;;;18.40;99.90;;;;;;5082342;28;20046;-41
2023/07/23 06:20:54;;;;;;;4.63;2.60;;;18.70;99.90;;;;;;5082602;28;20027;-41
2023/07/23 06:23:19;;;;;;;4.78;2.90;;;18.80;99.90;;;;;;5076738;28;20032;-37
2023/07/23 06:25:45;;;;;;;3.45;2.40;;;18.90;99.90;;;;;;5082460;28;20028;-42
2023/07/23 06:28:11;;;;;;;3.38;2.30;;;19.10;99.90;;;;;;5088968;28;20195;-40
2023/07/23 06:30:36;;;;;;;3.50;2.58;;;19.20;99.90;;;;;;5079393;28;20024;-41
2023/07/23 06:33:02;;;;;;;3.83;2.30;;;19.40;99.90;;;;;;5086912;28;20032;-41
2023/07/23 06:35:28;;;;;;;3.10;2.05;;;19.50;99.90;;;;;;5086123;28;20031;-40
2023/07/23 06:37:53;;;;;;;2.35;2.15;;;19.70;99.90;;;;;;5086285;28;20043;-42
2023/07/23 06:40:19;;;;;;;4.97;2.55;;;19.90;99.90;;;;;;5081963;28;20511;-41
2023/07/23 06:42:45;;;;;;;2.15;1.88;;;20.00;99.90;;;;;;5083886;28;20027;-38
2023/07/23 06:45:11;;;;;;;2.97;2.20;;;20.20;99.90;;;;;;5082961;28;20024;-40
2023/07/23 06:47:38;;;;;;;2.28;2.08;;;20.40;99.90;;;;;;5076903;28;20040;-38
2023/07/23 06:50:04;;;;;;;2.95;2.35;;;20.50;99.90;;;;;;5082124;28;20028;-30
2023/07/23 06:52:30;;;;;;;3.63;2.10;;;20.60;99.90;;;;;;5084909;28;20197;-33
2023/07/23 06:54:55;;;;;;;3.13;2.30;;;20.70;99.90;;;;;;5085087;28;20461;-31
2023/07/23 06:57:21;;;;;;;2.33;2.10;;;20.90;99.90;;;;;;5087372;28;20036;-33
2023/07/23 06:59:48;;;;;;;3.00;2.35;;;21.20;99.90;;;;;;5086533;28;20105;-31
2023/07/23 07:02:14;;;;;;;3.07;2.53;;;21.40;99.90;;;;;;5085130;28;20035;-33
2023/07/23 07:04:40;;;;;;;2.53;2.13;;;21.40;99.90;;;;;;5085458;28;20300;-32
2023/07/23 07:07:06;;;;;;;2.83;2.10;;;21.50;99.90;;;;;;5082048;28;20100;-40
2023/07/23 07:09:31;;;;;;;4.43;2.10;;;21.50;99.90;;;;;;5083207;28;20029;-31
2023/07/23 07:11:57;;;;;;;3.00;2.30;;;21.60;99.90;;;;;;5096348;27;20439;-33
2023/07/23 07:14:24;;;;;;;2.38;1.92;;;21.70;99.90;;;;;;5081305;28;20032;-31
2023/07/23 07:16:49;;;;;;;2.92;2.40;;;21.90;99.90;;;;;;5085704;28;20028;-32
2023/07/23 07:19:16;;;;;;;3.63;2.33;;;22.00;99.90;;;;;;5085051;28;20040;-34
2023/07/23 07:21:42;;;;;;;3.05;2.42;;;22.20;99.90;;;;;;5089125;28;20154;-33
2023/07/23 07:24:08;;;;;;;2.33;2.10;;;22.40;99.90;;;;;;5085134;28;20034;-31
2023/07/23 07:26:34;;;;;;;4.45;2.15;;;22.50;99.90;;;;;;5084710;28;20047;-32
2023/07/23 07:29:00;;;;;;;2.80;2.17;;;22.70;99.90;;;;;;5086967;28;20553;-33
2023/07/23 07:31:25;;;;;;;2.20;2.00;;;22.80;99.90;;;;;;5084148;28;20036;-31
2023/07/23 07:33:51;;;;;;;3.88;2.38;;;23.10;99.90;;;;;;5086749;28;20032;-34
2023/07/23 07:36:17;;;;;;;2.83;2.22;;;23.00;99.90;;;;;;5084926;28;20135;-31
2023/07/23 07:38:43;;;;;;;2.22;2.03;;;22.90;99.90;;;;;;5088036;28;20032;-32
2023/07/23 07:41:09;;;;;;;2.80;2.22;;;23.10;99.90;;;;;;5082026;28;20135;-32
2023/07/23 07:43:35;;;;;;;3.05;2.17;;;23.20;99.90;;;;;;5085067;28;20138;-32
2023/07/23 07:46:03;;;;;;;2.70;2.33;;;23.20;99.90;;;;;;5088408;28;20477;-32
2023/07/23 07:48:31;;;;;;;3.08;2.13;;;23.40;99.90;;;;;;5086718;28;20016;-32
2023/07/23 07:50:58;;;;;;;3.13;2.20;;;23.40;99.90;;;;;;5087347;28;20024;-33
2023/07/23 07:53:24;;;;;;;2.78;2.30;;;23.60;99.90;;;;;;5084478;28;20489;-35
2023/07/23 07:55:49;;;;;;;2.50;2.00;;;23.80;99.90;;;;;;5087433;28;20039;-33
2023/07/23 07:58:16;;;;;;;2.67;1.90;;;23.90;99.90;;;;;;5082506;28;20032;-34
2023/07/23 08:00:42;;;;;;;2.55;2.13;;;24.00;99.90;;;;;;5084011;28;20380;-42
2023/07/23 08:03:09;;;;;;;2.80;2.13;;;24.00;99.90;;;;;;5081981;28;20088;-42
2023/07/23 08:05:35;;;;;;;2.78;2.00;;;24.00;99.90;;;;;;5082971;28;20370;-40
2023/07/23 08:08:04;;;;;;;2.67;2.08;;;24.10;99.90;;;;;;5078759;28;20035;-40
2023/07/23 08:10:30;;;;;;;2.83;2.05;;;24.20;99.90;;;;;;5085139;28;20034;-42
2023/07/23 08:12:56;;;;;;;2.08;1.90;;;24.40;99.90;;;;;;5084406;28;20031;-41
2023/07/23 08:15:22;;;;;;;2.88;2.20;;;24.50;99.90;;;;;;5086582;28;20032;-40
2023/07/23 08:17:48;;;;;;;2.38;2.13;;;24.60;99.90;;;;;;5086682;28;20042;-42
2023/07/23 08:20:14;;;;;;;2.30;2.08;;;24.70;99.90;;;;;;5084509;28;20036;-41
2023/07/23 08:22:40;;;;;;;2.72;2.15;;;24.70;99.90;;;;;;5082753;28;20039;-41
2023/07/23 08:25:08;;;;;;;3.03;2.22;;;24.90;99.90;;;;;;5081830;28;20028;-39
2023/07/23 08:27:35;;;;;;;2.10;1.90;;;25.00;99.90;;;;;;5080413;28;20401;-42
2023/07/23 08:30:01;;;;;;;2.35;1.85;;;25.10;99.90;;;;;;5082007;28;20086;-42
2023/07/23 08:32:29;;;;;;;2.40;2.10;;;25.10;99.90;;;;;;5075926;28;20036;-42
2023/07/23 08:34:56;;;;;;;4.28;2.22;;;25.20;99.90;;;;;;5085526;28;20430;-41
2023/07/23 08:37:22;;;;;;;2.42;2.15;;;25.20;99.90;;;;;;5079656;28;20115;-40
2023/07/23 08:39:48;;;;;;;2.75;2.10;;;25.50;99.90;;;;;;5081890;28;20157;-42
2023/07/23 08:42:59;;;;;;;3.20;2.17;;;25.60;99.90;;;;;;5083590;28;20725;-41
2023/07/23 08:45:45;;;;;;;2.55;2.05;;;25.60;99.90;;;;;;5075588;28;20048;-41
2023/07/23 08:48:18;;;;;;;3.50;2.10;;;25.80;99.90;;;;;;5081333;28;20042;-40
2023/07/23 08:50:49;;;;;;;2.55;2.15;;;25.90;99.90;;;;;;5083455;28;20114;-39
2023/07/23 08:53:17;;;;;;;2.38;1.83;;;25.80;99.90;;;;;;5080770;28;20026;-40
2023/07/23 08:55:45;;;;;;;2.30;2.10;;;25.80;99.90;;;;;;5079971;28;20033;-42
2023/07/23 08:58:19;;;;;;;2.78;1.88;;;26.00;99.90;;;;;;5082149;28;21711;-40
2023/07/23 09:00:46;;;;;;;2.92;1.90;;;26.30;99.90;;;;;;5077761;28;20032;-40
2023/07/23 09:03:14;;;;;;;2.20;2.00;;;26.60;99.90;;;;;;5076710;28;20081;-38
2023/07/23 09:05:40;;;;;;;;;;;26.20;99.90;;;;;;5083994;28;20032;-40
2023/07/23 09:08:07;;;;;;;2.40;1.90;;;26.10;99.90;;;;;;5082107;28;19912;-34
2023/07/23 09:10:33;;;;;;;2.55;1.90;;;26.30;99.90;;;;;;5086357;28;20023;-41
2023/07/23 09:12:58;;;;;;;2.78;2.00;;;26.40;99.90;;;;;;5080904;28;20043;-41
2023/07/23 09:15:24;;;;;;;2.20;1.95;;;26.40;99.90;;;;;;5079742;28;20039;-41
2023/07/23 09:17:50;;;;;;;3.53;2.30;;;26.50;99.90;;;;;;5091672;28;20059;-41
2023/07/23 09:20:19;;;;;;;3.15;2.05;;;26.40;99.90;;;;;;5078454;28;20161;-41
2023/07/23 09:22:46;;;;;;;2.40;2.20;;;26.10;99.90;;;;;;5081038;28;20111;-36
2023/07/23 09:25:12;;;;;;;2.57;2.07;;;25.80;99.90;;;;;;5081119;28;20137;-40
2023/07/23 09:27:40;;;;;;;2.28;1.90;;;25.80;99.90;;;;;;5082758;28;20278;-42
2023/07/23 09:30:07;;;;;;;2.40;2.05;;;26.30;99.90;;;;;;5079395;28;20542;-42
2023/07/23 09:32:32;;;;;;;2.58;2.17;;;26.50;99.90;;;;;;5075699;28;20032;-42
2023/07/23 09:34:59;;;;;;;3.40;2.53;;;26.70;99.90;;;;;;5080214;28;20503;-40
2023/07/23 09:37:28;;;;;;;2.53;2.33;;;26.60;99.90;;;;;;5082759;28;20205;-41
2023/07/23 09:39:57;;;;;;;5.25;2.33;;;26.70;99.90;;;;;;5079542;28;20373;-40
2023/07/23 09:42:23;;;;;;;4.20;2.20;;;26.80;99.90;;;;;;5083541;28;20546;-40
2023/07/23 09:44:50;;;;;;;2.50;2.30;;;26.80;99.90;;;;;;5080530;28;20110;-40
2023/07/23 09:47:16;;;;;;;3.42;2.40;;;26.90;99.90;;;;;;5086998;28;20531;-41
2023/07/23 09:49:42;;;;;;;2.70;2.28;;;27.10;99.90;;;;;;5085197;28;20032;-38
2023/07/23 09:52:08;;;;;;;3.25;2.35;;;27.00;99.90;;;;;;5082435;28;20020;-41
2023/07/23 09:54:37;;;;;;;3.28;2.13;;;27.10;99.90;;;;;;5076726;28;20553;-40
2023/07/23 09:57:03;;;;;;;3.00;2.20;;;27.00;99.90;;;;;;5080543;28;20727;-39
2023/07/23 09:59:30;;;;;;;4.35;2.45;;;27.00;99.90;;;;;;5079559;28;20035;-42
2023/07/23 10:01:56;;;;;;;3.75;2.40;;;27.20;99.90;;;;;;5074782;28;20044;-41
2023/07/23 10:04:23;;;;;;;3.35;2.22;;;27.20;99.90;;;;;;5061457;28;20047;-41
2023/07/23 10:06:49;;;;;;;2.88;2.15;;;27.10;99.90;;;;;;5061437;28;20021;-38
2023/07/23 10:09:19;;;;;;;3.85;2.67;;;27.20;99.90;;;;;;5055979;28;20403;-39
2023/07/23 10:11:45;;;;;;;4.20;2.55;;;27.40;99.90;;;;;;5062138;28;20115;-40
2023/07/23 10:14:11;;;;;;;2.42;1.95;;;27.30;99.90;;;;;;5057212;28;20115;-39
2023/07/23 10:16:40;;;;;;;3.13;2.20;;;27.40;99.90;;;;;;5060222;28;20503;-41
2023/07/23 10:19:08;;;;;;;4.65;2.60;;;27.40;99.90;;;;;;5055135;28;20029;-33
2023/07/23 10:21:35;;;;;;;4.05;2.55;;;27.10;99.90;;;;;;5061152;28;20059;-34
2023/07/23 10:24:03;;;;;;;5.38;2.90;;;27.10;99.90;;;;;;5063212;28;20039;-35
2023/07/23 10:26:38;;;;;;;4.60;2.72;;;27.40;99.90;;;;;;5059181;28;20028;-32
2023/07/23 10:29:14;;;;;;;5.15;2.50;;;27.40;99.90;;;;;;5057761;28;20032;-36
2023/07/23 10:31:42;;;;;;;5.22;2.60;;;27.50;99.90;;;;;;5065371;28;20159;-32
2023/07/23 10:34:23;;;;;;;3.50;2.67;;;27.70;99.90;;;;;;5077611;28;20029;-36
2023/07/23 10:37:10;;;;;;;2.97;2.30;;;27.80;99.90;;;;;;5083583;28;20541;-38
2023/07/23 10:39:43;;;;;;;4.03;2.67;;;27.20;99.90;;;;;;5087548;28;20495;-34
2023/07/23 10:42:09;;;;;;;4.78;2.50;;;26.90;99.90;;;;;;5090134;28;20032;-33
2023/07/23 10:44:38;;;;;;;3.22;2.33;;;26.90;99.90;;;;;;5082656;28;20028;-35
2023/07/23 10:47:33;;;;;;;6.35;2.40;;;27.30;99.90;;;;;;5084018;28;20032;-36
2023/07/23 10:50:12;;;;;;;3.42;2.50;;;27.70;99.90;;;;;;5081904;28;20059;-32
2023/07/23 10:52:38;;;;;;;3.63;2.50;;;27.10;99.90;;;;;;5083111;28;20024;-36
2023/07/23 10:55:04;;;;;;;4.47;2.90;;;27.00;99.90;;;;;;5083309;28;20110;-32
2023/07/23 10:57:30;;;;;;;6.80;2.78;;;26.90;99.90;;;;;;5099326;28;20032;-33
2023/07/23 10:59:56;;;;;;;3.90;2.90;;;27.00;99.90;;;;;;5090254;28;20031;-34
2023/07/23 11:02:26;;;;;;;5.03;2.40;;;27.30;99.90;;;;;;5080683;28;20033;-33
2023/07/23 11:04:55;;;;;;;6.10;2.75;;;27.50;99.90;;;;;;5084584;28;20127;-35
2023/07/23 11:07:28;;;;;;;7.07;3.30;;;27.30;99.90;;;;;;5087356;28;20120;-33
2023/07/23 11:10:16;;;;;;;5.13;2.88;;;27.40;99.90;;;;;;5084876;28;20081;-36
2023/07/23 11:12:42;;;;;;;5.75;3.40;;;26.90;99.90;;;;;;5085915;28;20020;-34
2023/07/23 11:15:14;;;;;;;4.00;2.80;;;27.30;99.90;;;;;;5083375;28;20024;-31
2023/07/23 11:17:39;;;;;;;6.88;3.30;;;27.20;99.90;;;;;;5084908;28;20025;-32
2023/07/23 11:20:06;;;;;;;6.65;3.53;;;26.70;99.90;;;;;;5085793;28;20039;-33
2023/07/23 11:22:32;;;;;;;5.55;3.92;;;26.60;99.90;;;;;;5085652;28;20457;-34
2023/07/23 11:24:57;;;;;;;6.75;4.05;;;26.70;99.90;;;;;;5078561;28;20028;-33
2023/07/23 11:27:23;;;;;;;6.78;4.13;;;26.90;99.90;;;;;;5082279;28;20063;-34
2023/07/23 11:29:49;;;;;;;8.20;4.78;;;27.30;99.90;;;;;;5081746;28;20024;-31
2023/07/23 11:32:14;;;;;;;11.10;4.82;;;26.90;99.90;;;;;;5086818;28;20028;-32
2023/07/23 11:34:40;;;;;;;8.20;4.70;;;26.80;99.90;;;;;;5086482;28;20032;-31
2023/07/23 11:37:10;;;;;;;8.32;4.68;;;26.60;99.90;;;;;;5084874;28;20086;-31
2023/07/23 11:39:35;;;;;;;9.38;4.80;;;26.50;99.90;;;;;;5084344;28;20033;-34
2023/07/23 11:42:01;;;;;;;6.55;4.10;;;26.90;99.90;;;;;;5082695;28;20043;-31
2023/07/23 11:44:27;;;;;;;8.13;4.60;;;27.00;99.90;;;;;;5081250;28;20149;-31
2023/07/23 11:47:01;;;;;;;7.53;4.10;;;27.10;99.90;;;;;;5081806;28;20115;-34
2023/07/23 11:49:27;;;;;;;7.75;4.30;;;27.10;99.90;;;;;;5099444;27;20107;-31
2023/07/23 11:51:52;;;;;;;11.00;5.35;;;27.00;99.90;;;;;;5086512;28;20615;-32
2023/07/23 11:54:18;;;;;;;11.10;4.85;;;27.20;99.90;;;;;;5087474;28;20047;-31
2023/07/23 11:56:48;;;;;;;7.90;4.95;;;27.70;99.90;;;;;;5082733;28;20028;-34
2023/07/23 11:59:16;;;;;;;11.15;5.50;;;27.70;99.90;;;;;;5100082;28;20118;-32
2023/07/23 12:01:42;;;;;;;11.85;5.80;;;27.50;99.90;;;;;;5079886;28;20036;-31
2023/07/23 12:04:09;;;;;;;8.98;5.05;;;27.20;99.90;;;;;;5080189;28;20118;-36
2023/07/23 12:06:37;;;;;;;8.97;5.33;;;27.40;99.90;;;;;;5082624;28;20020;-37
2023/07/23 12:09:08;;;;;;;11.55;5.22;;;27.70;99.90;;;;;;5088890;28;20067;-32
2023/07/23 12:11:36;;;;;;;9.52;5.80;;;28.00;99.90;;;;;;5084894;28;20480;-33
2023/07/23 12:14:03;;;;;;;7.13;5.05;;;27.80;99.90;;;;;;5086015;28;20371;-31
2023/07/23 12:16:40;;;;;;;7.72;4.72;;;27.40;99.90;;;;;;5082843;28;20110;-33
2023/07/23 12:19:41;;;;;;;10.02;5.45;;;27.30;99.90;;;;;;5081910;28;20534;-32
2023/07/23 12:22:07;;;;;;;26.65;16.20;;;27.80;99.90;;;;;;5074412;28;20062;-31
2023/07/23 12:24:33;;;;;;;37.20;25.48;;;27.80;99.90;;;;;;5079903;28;20024;-31
2023/07/23 12:27:00;;;;;;;18.20;11.60;;;27.70;99.90;;;;;;5079749;28;20016;-32
2023/07/23 12:29:27;;;;;;;11.55;7.30;;;27.70;99.90;;;;;;5084713;28;20035;-31
2023/07/23 12:32:13;;;;;;;12.48;6.60;;;27.40;99.90;;;;;;5083922;28;20371;-32
2023/07/23 12:34:40;;;;;;;9.98;6.15;;;27.10;99.90;;;;;;5078978;28;20539;-34
2023/07/23 12:37:07;;;;;;;12.70;5.93;;;27.00;99.90;;;;;;5079405;28;20525;-31
2023/07/23 12:39:32;;;;;;;9.20;5.85;;;27.20;99.90;;;;;;5086255;28;20491;-38
2023/07/23 12:41:59;;;;;;;9.82;4.95;;;27.10;99.90;;;;;;5085032;28;20031;-39
2023/07/23 12:44:25;;;;;;;32.40;24.45;;;27.20;99.90;;;;;;5077870;28;20031;-41